createdAt,value
2019-05-17T00:02:27.032Z,10.80
2019-05-17T00:04:56.544Z,11.77
2019-05-17T00:07:27.280Z,11.50
2019-05-17T00:09:57.196Z,12.07
2019-05-17T00:12:27.251Z,11.80
2019-05-17T00:14:56.787Z,11.93
2019-05-17T00:17:46.987Z,12.37
2019-05-17T00:20:17.527Z,12.10
2019-05-17T00:22:47.378Z,12.70
2019-05-17T00:25:17.318Z,13.20
2019-05-17T00:27:47.442Z,12.77
2019-05-17T00:30:17.827Z,13.20
2019-05-17T00:32:47.642Z,13.63
2019-05-17T00:35:17.967Z,12.90
2019-05-17T00:37:47.622Z,13.47
2019-05-17T00:40:17.674Z,14.23
2019-05-17T00:42:47.215Z,14.40
2019-05-17T00:45:17.572Z,13.43
2019-05-17T00:47:47.377Z,14.37
2019-05-17T00:50:17.948Z,14.00
2019-05-17T00:52:47.683Z,13.93
2019-05-17T00:55:17.655Z,14.97
2019-05-17T00:57:47.720Z,14.87
2019-05-17T01:00:18.830Z,15.47
2019-05-17T01:02:49.470Z,15.13
2019-05-17T01:05:19.048Z,13.87
2019-05-17T01:07:48.639Z,14.17
2019-05-17T01:10:18.139Z,15.80
2019-05-17T01:12:48.235Z,14.60
2019-05-17T01:15:18.095Z,14.30
2019-05-17T01:17:47.676Z,15.13
2019-05-17T01:20:17.535Z,15.30
2019-05-17T01:22:47.599Z,14.60
2019-05-17T01:25:17.398Z,15.50
2019-05-17T01:27:47.522Z,16.07
2019-05-17T01:30:18.734Z,16.43
2019-05-17T01:32:48.260Z,17.13
2019-05-17T01:38:23.438Z,16.73
2019-05-17T01:40:52.930Z,16.60
2019-05-17T01:43:22.376Z,17.43
2019-05-17T01:45:52.945Z,17.30
2019-05-17T01:48:24.360Z,17.63
2019-05-17T01:50:53.526Z,17.20
2019-05-17T01:53:22.969Z,17.03
2019-05-17T01:55:52.581Z,17.10
2019-05-17T01:58:21.979Z,16.90
2019-05-17T02:00:51.435Z,16.40
2019-05-17T02:03:20.961Z,17.67
2019-05-17T02:05:50.405Z,17.73
2019-05-17T02:08:19.847Z,17.67
2019-05-17T02:10:49.255Z,17.83
2019-05-17T02:13:18.689Z,17.80
2019-05-17T02:15:48.148Z,17.07
2019-05-17T02:18:17.670Z,17.87
2019-05-17T02:20:47.142Z,18.70
2019-05-17T02:23:17.387Z,17.57
2019-05-17T02:28:32.888Z,19.43
2019-05-17T02:31:03.425Z,17.20
2019-05-17T02:33:53.509Z,19.23
2019-05-17T02:36:23.148Z,17.77
2019-05-17T02:38:53.249Z,17.63
2019-05-17T02:41:22.916Z,18.50
2019-05-17T02:43:53.432Z,18.50
2019-05-17T02:46:23.285Z,19.93
2019-05-17T02:48:53.817Z,19.00
2019-05-17T02:51:23.947Z,18.97
2019-05-17T02:53:53.674Z,19.60
2019-05-17T02:56:23.382Z,18.93
2019-05-17T02:58:53.464Z,19.50
2019-05-17T03:01:23.273Z,19.57
2019-05-17T03:03:53.151Z,18.83
2019-05-17T03:06:22.943Z,19.23
2019-05-17T03:08:52.680Z,19.37
2019-05-17T03:11:22.821Z,18.47
2019-05-17T03:13:52.714Z,18.43
2019-05-17T03:16:23.600Z,18.90
2019-05-17T03:18:53.555Z,18.00
2019-05-17T03:21:23.461Z,18.80
2019-05-17T03:23:55.957Z,17.73
2019-05-17T03:26:25.466Z,18.33
2019-05-17T03:28:55.021Z,19.07
2019-05-17T03:31:26.866Z,19.57
2019-05-17T03:33:57.237Z,19.80
2019-05-17T03:36:27.802Z,18.77
2019-05-17T03:38:57.497Z,19.03
2019-05-17T03:41:29.055Z,19.23
2019-05-17T03:43:58.224Z,20.03
2019-05-17T03:46:27.849Z,19.77
2019-05-17T03:48:57.343Z,19.17
2019-05-17T03:51:26.955Z,19.13
2019-05-17T03:53:56.486Z,19.20
2019-05-17T03:56:26.068Z,19.50
2019-05-17T03:58:55.602Z,19.67
2019-05-17T04:01:25.234Z,20.07
2019-05-17T04:03:54.824Z,20.43
2019-05-17T04:06:24.329Z,19.87
2019-05-17T04:08:53.899Z,20.10
2019-05-17T04:11:31.426Z,20.77
2019-05-17T04:13:54.671Z,19.87
2019-05-17T04:16:24.220Z,19.97
2019-05-17T04:18:53.843Z,19.90
2019-05-17T04:21:23.768Z,18.70
2019-05-17T04:23:53.915Z,20.93
2019-05-17T04:26:23.546Z,20.83
2019-05-17T04:28:53.513Z,20.80
2019-05-17T04:31:23.222Z,20.03
2019-05-17T04:33:53.677Z,20.07
2019-05-17T04:36:23.363Z,20.30
2019-05-17T04:38:52.927Z,19.70
2019-05-17T04:41:51.077Z,18.60
2019-05-17T04:44:18.594Z,19.97
2019-05-17T04:46:48.008Z,19.60
2019-05-17T04:49:17.593Z,18.87
2019-05-17T04:51:48.993Z,20.07
2019-05-17T04:54:18.454Z,19.87
2019-05-17T04:56:47.954Z,20.07
2019-05-17T04:59:17.474Z,18.97
2019-05-17T05:01:47.002Z,19.47
2019-05-17T05:04:18.310Z,18.47
2019-05-17T05:06:48.554Z,18.87
2019-05-17T05:09:18.984Z,19.70
2019-05-17T05:11:59.522Z,18.10
2019-05-17T05:14:23.176Z,17.90
2019-05-17T05:16:52.860Z,18.77
2019-05-17T05:19:23.689Z,18.07
2019-05-17T05:21:53.202Z,18.60
2019-05-17T05:24:23.471Z,17.97
2019-05-17T05:26:53.242Z,18.13
2019-05-17T05:32:08.600Z,17.73
2019-05-17T05:34:38.286Z,17.83
2019-05-17T05:37:09.128Z,17.63
2019-05-17T05:39:38.676Z,17.07
2019-05-17T05:42:11.544Z,18.03
2019-05-17T05:44:41.590Z,17.73
2019-05-17T05:47:11.728Z,17.27
2019-05-17T05:49:42.602Z,16.83
2019-05-17T05:52:13.150Z,16.73
2019-05-17T05:54:42.669Z,16.50
2019-05-17T05:57:12.756Z,17.23
2019-05-17T05:59:42.566Z,16.87
2019-05-17T06:02:12.481Z,16.23
2019-05-17T06:04:42.390Z,16.00
2019-05-17T06:07:14.854Z,16.23
2019-05-17T06:09:44.293Z,16.30
2019-05-17T06:12:23.368Z,15.23
2019-05-17T06:14:44.855Z,14.87
2019-05-17T06:17:14.356Z,15.10
2019-05-17T06:19:43.844Z,14.60
2019-05-17T06:22:13.328Z,14.50
2019-05-17T06:24:42.980Z,14.13
2019-05-17T06:27:12.491Z,14.70
2019-05-17T06:29:41.896Z,13.70
2019-05-17T06:32:11.989Z,14.37
2019-05-17T06:34:42.268Z,13.40
2019-05-17T06:37:12.967Z,13.63
2019-05-17T06:39:43.178Z,13.13
2019-05-17T06:42:12.707Z,12.90
2019-05-17T06:44:42.173Z,13.70
2019-05-17T06:47:12.048Z,13.47
2019-05-17T06:49:42.471Z,12.00
2019-05-17T06:52:12.072Z,13.33
2019-05-17T06:54:41.873Z,12.80
2019-05-17T06:57:12.887Z,12.63
2019-05-17T06:59:42.394Z,12.77
2019-05-17T07:02:11.846Z,12.57
2019-05-17T07:04:41.278Z,12.03
2019-05-17T07:07:30.411Z,11.13
2019-05-17T07:10:00.871Z,11.13
2019-05-17T07:12:30.846Z,11.20
2019-05-17T07:15:01.721Z,11.73
2019-05-17T07:17:32.437Z,10.80
2019-05-17T07:20:01.912Z,11.40
2019-05-17T07:22:31.460Z,10.50
2019-05-17T07:25:00.972Z,10.40
2019-05-17T07:27:40.688Z,9.97
2019-05-17T07:30:01.613Z,10.37
2019-05-17T07:32:31.129Z,9.00
2019-05-17T07:35:00.731Z,9.93
2019-05-17T07:37:30.513Z,9.20
2019-05-17T07:40:04.745Z,9.87
2019-05-17T07:42:31.386Z,9.40
2019-05-17T07:45:01.078Z,9.53
2019-05-17T07:47:31.908Z,9.90
2019-05-17T07:50:01.550Z,9.03
2019-05-17T07:52:31.163Z,8.80
2019-05-17T07:55:02.666Z,9.40
2019-05-17T07:57:32.273Z,9.03
2019-05-17T08:00:01.817Z,9.00
2019-05-17T08:02:31.887Z,9.57
2019-05-17T08:05:01.962Z,9.27
2019-05-17T08:07:31.526Z,9.07
2019-05-17T08:10:00.973Z,9.30
2019-05-17T08:12:31.797Z,8.77
2019-05-17T08:15:02.398Z,8.90
2019-05-17T08:17:31.874Z,9.77
2019-05-17T08:20:01.352Z,8.90
2019-05-17T08:25:30.458Z,8.97
2019-05-17T08:28:00.116Z,9.27
2019-05-17T08:30:30.306Z,8.60
2019-05-17T08:33:00.875Z,9.90
2019-05-17T08:38:16.288Z,9.53
2019-05-17T08:40:45.726Z,9.57
2019-05-17T08:43:15.158Z,10.10
2019-05-17T08:45:44.573Z,10.10
2019-05-17T08:48:13.958Z,10.27
2019-05-17T08:50:43.431Z,10.10
2019-05-17T08:53:24.900Z,10.17
2019-05-17T08:55:54.341Z,9.37
2019-05-17T08:58:23.807Z,10.37
2019-05-17T09:00:53.365Z,10.77
2019-05-17T09:03:22.926Z,10.50
2019-05-17T09:05:52.943Z,10.17
2019-05-17T09:08:22.600Z,10.33
2019-05-17T09:10:52.160Z,9.80
2019-05-17T09:13:21.804Z,10.17
2019-05-17T09:15:51.360Z,10.37
2019-05-17T09:18:21.216Z,10.53
2019-05-17T09:20:51.232Z,10.70
2019-05-17T09:23:20.730Z,10.83
2019-05-17T09:25:50.297Z,10.30
2019-05-17T09:28:20.493Z,11.33
2019-05-17T09:30:50.779Z,10.50
2019-05-17T09:33:20.453Z,10.83
2019-05-17T09:35:50.213Z,10.67
2019-05-17T09:38:20.571Z,11.17
2019-05-17T09:40:50.665Z,11.43
2019-05-17T09:43:20.799Z,11.00
2019-05-17T09:45:51.809Z,10.50
2019-05-17T09:48:21.254Z,10.17
2019-05-17T09:50:51.854Z,10.70
2019-05-17T09:53:21.374Z,10.23
2019-05-17T09:55:51.258Z,10.47
2019-05-17T09:58:21.760Z,10.63
2019-05-17T10:00:51.857Z,10.57
2019-05-17T10:03:23.909Z,10.83
2019-05-17T10:05:52.740Z,10.70
2019-05-17T10:08:22.394Z,11.20
2019-05-17T10:11:04.988Z,11.10
2019-05-17T10:13:24.186Z,11.00
2019-05-17T10:15:54.043Z,10.70
2019-05-17T10:18:23.562Z,10.57
2019-05-17T10:20:53.172Z,11.57
2019-05-17T10:23:22.896Z,10.27
2019-05-17T10:25:54.398Z,10.30
2019-05-17T10:28:23.929Z,10.40
2019-05-17T10:30:53.480Z,10.27
2019-05-17T10:33:24.779Z,9.30
2019-05-17T10:35:54.201Z,9.13
2019-05-17T10:38:23.659Z,9.27
2019-05-17T10:40:52.998Z,9.67
2019-05-17T10:43:22.575Z,9.87
2019-05-17T10:45:52.056Z,9.67
2019-05-17T10:48:21.523Z,9.77
2019-05-17T10:50:51.000Z,9.07
2019-05-17T10:53:20.602Z,8.60
2019-05-17T10:55:50.754Z,8.60
2019-05-17T10:58:21.257Z,8.13
2019-05-17T11:00:50.891Z,8.23
2019-05-17T11:03:20.485Z,8.07
2019-05-17T11:05:50.383Z,7.97
2019-05-17T11:08:19.999Z,7.80
2019-05-17T11:10:50.324Z,8.03
2019-05-17T11:16:25.880Z,7.37
2019-05-17T11:18:57.623Z,7.67
2019-05-17T11:21:27.163Z,7.53
2019-05-17T11:23:56.739Z,8.33
2019-05-17T11:26:26.334Z,8.23
2019-05-17T11:28:55.911Z,8.07
2019-05-17T11:31:26.555Z,8.17
2019-05-17T11:33:56.343Z,8.60
2019-05-17T11:36:25.882Z,8.23
2019-05-17T11:38:55.386Z,8.60
2019-05-17T11:41:24.852Z,7.70
2019-05-17T11:43:54.303Z,7.60
2019-05-17T11:46:35.215Z,7.90
2019-05-17T11:48:54.949Z,7.40
2019-05-17T11:51:27.228Z,7.90
2019-05-17T11:53:55.611Z,7.80
2019-05-17T11:56:25.183Z,7.40
2019-05-17T11:58:54.717Z,7.40
2019-05-17T12:01:24.215Z,7.80
2019-05-17T12:03:53.706Z,8.60
2019-05-17T12:06:23.300Z,8.60
2019-05-17T12:08:54.646Z,8.60
2019-05-17T12:11:24.818Z,9.30
2019-05-17T12:13:55.211Z,9.30
2019-05-17T12:16:24.724Z,9.07
2019-05-17T12:18:54.256Z,8.67
2019-05-17T12:21:23.831Z,9.20
2019-05-17T12:23:53.382Z,9.60
2019-05-17T12:26:22.872Z,9.40
2019-05-17T12:28:53.216Z,9.40
2019-05-17T12:31:22.778Z,10.33
2019-05-17T12:33:52.307Z,9.97
2019-05-17T12:36:22.433Z,9.67
2019-05-17T12:38:51.875Z,9.27
2019-05-17T12:41:21.495Z,9.43
2019-05-17T12:43:51.035Z,9.33
2019-05-17T12:46:20.398Z,9.77
2019-05-17T12:48:49.993Z,9.43
2019-05-17T12:51:19.537Z,9.50
2019-05-17T12:53:49.055Z,9.03
2019-05-17T12:56:18.580Z,10.10
2019-05-17T12:58:48.437Z,9.67
2019-05-17T13:01:17.935Z,10.70
2019-05-17T13:03:47.436Z,9.43
2019-05-17T13:06:16.980Z,10.70
2019-05-17T13:08:46.450Z,9.97
2019-05-17T13:11:15.981Z,10.43
2019-05-17T13:13:45.505Z,10.53
2019-05-17T13:16:18.763Z,10.30
2019-05-17T13:18:46.273Z,10.20
2019-05-17T13:21:15.796Z,10.50
2019-05-17T13:23:45.350Z,10.73
2019-05-17T13:26:15.001Z,10.23
2019-05-17T13:29:09.357Z,10.67
2019-05-17T13:31:38.892Z,11.40
2019-05-17T13:34:08.350Z,11.23
2019-05-17T13:36:38.202Z,10.83
2019-05-17T13:39:08.320Z,10.43
2019-05-17T13:41:38.452Z,10.63
2019-05-17T13:44:08.292Z,10.23
2019-05-17T13:46:38.252Z,10.03
2019-05-17T13:49:07.723Z,9.83
2019-05-17T13:51:37.126Z,10.07
2019-05-17T13:54:06.727Z,10.33
2019-05-17T13:56:36.343Z,9.87
2019-05-17T13:59:06.550Z,10.53
2019-05-17T14:01:36.091Z,10.00
2019-05-17T14:04:06.032Z,9.37
2019-05-17T14:06:36.656Z,9.23
2019-05-17T14:09:07.764Z,9.43
2019-05-17T14:11:37.321Z,9.90
2019-05-17T14:14:06.829Z,9.33
2019-05-17T14:16:36.417Z,8.90
2019-05-17T14:19:06.435Z,9.50
2019-05-17T14:21:35.958Z,9.60
2019-05-17T14:27:11.414Z,10.17
2019-05-17T14:29:40.972Z,9.70
2019-05-17T14:32:11.127Z,9.67
2019-05-17T14:34:40.895Z,11.50
2019-05-17T14:39:56.227Z,11.10
2019-05-17T14:42:25.754Z,10.60
2019-05-17T14:44:55.225Z,10.80
2019-05-17T14:47:24.809Z,11.43
2019-05-17T14:53:01.879Z,10.40
2019-05-17T14:55:32.280Z,11.33
2019-05-17T14:58:01.803Z,12.53
2019-05-17T15:00:31.405Z,10.73
2019-05-17T15:03:01.243Z,10.50
2019-05-17T15:05:30.772Z,9.77
2019-05-17T15:08:00.359Z,9.90
2019-05-17T15:10:30.133Z,9.67
2019-05-17T15:13:01.649Z,10.00
2019-05-17T15:15:32.041Z,10.20
2019-05-17T15:18:02.024Z,9.93
2019-05-17T15:20:31.616Z,10.30
2019-05-17T15:23:03.349Z,10.53
2019-05-17T15:25:34.175Z,10.30
2019-05-17T15:28:04.048Z,10.23
2019-05-17T15:30:34.061Z,10.93
2019-05-17T15:33:03.981Z,10.60
2019-05-17T15:35:33.481Z,11.10
2019-05-17T15:38:02.955Z,11.30
2019-05-17T15:40:34.660Z,11.23
2019-05-17T15:43:03.743Z,11.80
2019-05-17T15:45:33.335Z,11.87
2019-05-17T15:48:05.361Z,11.93
2019-05-17T15:50:35.244Z,11.43
2019-05-17T15:53:04.706Z,12.27
2019-05-17T15:55:34.158Z,12.70
2019-05-17T15:58:03.624Z,12.60
2019-05-17T16:00:33.140Z,12.60
2019-05-17T16:03:02.557Z,11.47
2019-05-17T16:05:32.911Z,11.87
2019-05-17T16:08:02.830Z,12.00
2019-05-17T16:10:32.321Z,11.73
2019-05-17T16:13:03.605Z,11.67
2019-05-17T16:15:33.926Z,12.00
2019-05-17T16:18:03.404Z,11.77
2019-05-17T16:20:32.891Z,12.03
2019-05-17T16:23:02.475Z,12.33
2019-05-17T16:25:33.954Z,11.83
2019-05-17T16:28:03.095Z,11.13
2019-05-17T16:30:33.218Z,12.40
2019-05-17T16:33:02.693Z,11.70
2019-05-17T16:35:32.415Z,13.67
2019-05-17T16:38:21.325Z,11.50
2019-05-17T16:43:50.230Z,10.30
2019-05-17T16:46:19.770Z,11.07
2019-05-17T16:48:50.376Z,11.10
2019-05-17T16:51:19.806Z,11.37
2019-05-17T16:53:49.284Z,11.17
2019-05-17T16:56:18.780Z,10.67
2019-05-17T16:58:48.264Z,11.00
2019-05-17T17:01:17.826Z,10.90
2019-05-17T17:03:47.286Z,11.37
2019-05-17T17:06:16.762Z,10.80
2019-05-17T17:08:47.336Z,10.87
2019-05-17T17:11:16.896Z,11.23
2019-05-17T17:13:46.294Z,10.50
2019-05-17T17:16:15.729Z,11.03
2019-05-17T17:18:45.246Z,11.17
2019-05-17T17:21:14.729Z,10.60
2019-05-17T17:23:44.218Z,10.53
2019-05-17T17:26:13.641Z,10.57
2019-05-17T17:28:43.094Z,10.53
2019-05-17T17:31:16.115Z,10.37
2019-05-17T17:33:45.522Z,10.90
2019-05-17T17:36:15.165Z,10.73
2019-05-17T17:38:44.762Z,11.03
2019-05-17T17:41:14.208Z,11.13
2019-05-17T17:43:57.361Z,11.33
2019-05-17T17:46:15.903Z,11.67
2019-05-17T17:48:45.999Z,12.27
2019-05-17T17:51:15.554Z,11.43
2019-05-17T17:53:45.148Z,10.70
2019-05-17T17:56:16.529Z,11.40
2019-05-17T17:58:46.378Z,11.27
2019-05-17T18:01:15.957Z,12.43
2019-05-17T18:03:45.507Z,11.37
2019-05-17T18:06:15.037Z,11.07
2019-05-17T18:08:44.585Z,12.07
2019-05-17T18:11:15.806Z,11.00
2019-05-17T18:13:45.793Z,10.63
2019-05-17T18:16:15.390Z,10.77
2019-05-17T18:18:44.990Z,10.57
2019-05-17T18:21:15.445Z,11.03
2019-05-17T18:23:45.262Z,10.77
2019-05-17T18:26:14.814Z,11.10
2019-05-17T18:28:44.348Z,11.43
2019-05-17T18:31:14.240Z,11.57
2019-05-17T18:33:43.813Z,11.93
2019-05-17T18:36:13.371Z,10.73
2019-05-17T18:38:44.769Z,11.07
2019-05-17T18:41:14.441Z,11.80
2019-05-17T18:43:44.537Z,11.73
2019-05-17T18:46:14.593Z,15.97
2019-05-17T18:48:44.486Z,12.10
2019-05-17T18:51:14.382Z,13.60
2019-05-17T18:53:45.135Z,14.53
2019-05-17T18:56:14.711Z,16.07
2019-05-17T18:58:44.273Z,14.20
2019-05-17T19:01:13.814Z,14.93
2019-05-17T19:03:43.479Z,14.23
2019-05-17T19:06:13.376Z,14.37
2019-05-17T19:08:42.913Z,13.30
2019-05-17T19:11:12.855Z,12.83
2019-05-17T19:13:42.751Z,13.27
2019-05-17T19:16:15.427Z,14.83
2019-05-17T19:21:44.717Z,17.27
2019-05-17T19:24:14.613Z,18.90
2019-05-17T19:26:44.250Z,16.67
2019-05-17T19:29:14.269Z,15.67
2019-05-17T19:31:43.880Z,13.93
2019-05-17T19:34:14.380Z,13.37
2019-05-17T19:36:44.914Z,14.07
2019-05-17T19:39:14.605Z,15.03
2019-05-17T19:41:44.256Z,14.87
2019-05-17T19:44:14.638Z,14.13
2019-05-17T19:46:44.250Z,13.47
2019-05-17T19:49:14.667Z,14.40
2019-05-17T19:51:44.284Z,17.73
2019-05-17T19:54:13.840Z,15.00
2019-05-17T19:56:43.373Z,14.30
2019-05-17T19:59:13.221Z,14.43
2019-05-17T20:01:42.823Z,14.07
2019-05-17T20:04:12.329Z,14.00
2019-05-17T20:06:41.893Z,13.73
2019-05-17T20:09:11.424Z,13.53
2019-05-17T20:11:41.366Z,14.30
2019-05-17T20:14:11.022Z,15.60
2019-05-17T20:16:40.529Z,14.67
2019-05-17T20:19:10.135Z,15.10
2019-05-17T20:21:39.706Z,15.70
2019-05-17T20:24:09.677Z,16.30
2019-05-17T20:26:39.303Z,15.73
2019-05-17T20:29:10.941Z,15.87
2019-05-17T20:31:40.244Z,16.07
2019-05-17T20:34:09.942Z,16.20
2019-05-17T20:36:39.680Z,16.57
2019-05-17T20:39:09.752Z,16.80
2019-05-17T20:41:39.716Z,17.23
2019-05-17T20:44:09.666Z,17.80
2019-05-17T20:46:39.412Z,18.30
2019-05-17T20:49:09.005Z,17.60
2019-05-17T20:51:39.877Z,25.43
2019-05-17T20:54:09.599Z,22.40
2019-05-17T20:56:39.569Z,24.30
2019-05-17T20:59:10.059Z,29.90
2019-05-17T21:01:39.862Z,23.63
2019-05-17T21:04:09.914Z,20.33
2019-05-17T21:06:39.460Z,20.57
2019-05-17T21:09:09.437Z,19.67
2019-05-17T21:11:40.154Z,19.27
2019-05-17T21:14:10.679Z,19.67
2019-05-17T21:16:40.346Z,18.70
2019-05-17T21:19:10.603Z,18.90
2019-05-17T21:21:40.642Z,19.40
2019-05-17T21:24:10.423Z,20.03
2019-05-17T21:26:40.867Z,20.73
2019-05-17T21:29:10.828Z,19.30
2019-05-17T21:31:40.728Z,20.27
2019-05-17T21:34:10.376Z,19.50
2019-05-17T21:36:40.066Z,19.73
2019-05-17T21:39:10.221Z,19.33
2019-05-17T21:41:40.110Z,20.23
2019-05-17T21:44:10.902Z,19.90
2019-05-17T21:46:40.463Z,20.07
2019-05-17T21:49:10.230Z,20.03
2019-05-17T21:51:39.769Z,20.17
2019-05-17T21:54:09.499Z,20.10
2019-05-17T21:56:39.426Z,21.50
2019-05-17T21:59:28.361Z,21.03
2019-05-17T22:01:58.192Z,21.03
2019-05-17T22:04:27.708Z,20.97
2019-05-17T22:06:57.642Z,25.90
2019-05-17T22:09:27.278Z,22.10
2019-05-17T22:11:59.962Z,20.67
2019-05-17T22:14:29.794Z,20.67
2019-05-17T22:16:59.391Z,20.77
2019-05-17T22:19:29.257Z,21.17
2019-05-17T22:21:58.726Z,21.60
2019-05-17T22:24:28.329Z,21.13
2019-05-17T22:26:58.148Z,22.33
2019-05-17T22:29:27.631Z,23.03
2019-05-17T22:31:57.145Z,22.90
2019-05-17T22:34:26.631Z,21.67
2019-05-17T22:36:56.236Z,22.20
2019-05-17T22:39:25.747Z,22.33
2019-05-17T22:41:55.264Z,24.17
2019-05-17T22:44:24.937Z,24.10
2019-05-17T22:46:54.972Z,26.77
2019-05-17T22:49:24.500Z,27.13
2019-05-17T22:51:54.056Z,26.50
2019-05-17T22:54:23.572Z,25.63
2019-05-17T22:56:53.454Z,26.73
2019-05-17T22:59:23.022Z,26.07
2019-05-17T23:01:52.544Z,27.27
2019-05-17T23:04:22.165Z,26.53
2019-05-17T23:06:51.801Z,26.47
2019-05-17T23:09:21.689Z,26.63
2019-05-17T23:11:51.264Z,26.70
2019-05-17T23:14:20.817Z,25.33
2019-05-17T23:16:51.921Z,25.77
2019-05-17T23:19:21.499Z,26.13
2019-05-17T23:21:51.041Z,25.93
2019-05-17T23:24:21.051Z,26.80
2019-05-17T23:26:50.653Z,26.30
2019-05-17T23:29:20.080Z,26.20
2019-05-17T23:31:49.573Z,28.13
2019-05-17T23:34:19.213Z,27.30
2019-05-17T23:36:49.050Z,29.03
2019-05-17T23:39:18.544Z,28.87
2019-05-17T23:41:48.058Z,31.93
2019-05-17T23:44:17.559Z,35.20
2019-05-17T23:46:47.174Z,39.47
2019-05-17T23:49:16.692Z,43.27
2019-05-17T23:51:46.140Z,41.93
2019-05-17T23:54:15.663Z,45.37
2019-05-17T23:56:45.267Z,45.00
2019-05-17T23:59:14.787Z,42.93
